Chetopa, Kansas
Current Conditions -  °F | °C
As of 12:28 PM on Thursday 18 Dec 2014 (Local Time) from KCFV Reporting Station
Haze Haze  
Wind Chill: 37°   Ceiling: 200
Heat Index: 37°   Visibility: 5mi
Dew Point: 36°   Wind: 0mph
Humidity: 96%   Direction: NA
Pressure: 30.19"   Gusts: NA
Location:  37.04°N, 95.09°W
Report Text: KCFV 181828Z AUTO 00000KT 5SM BR OVC002 03/02 A3019 RMK AO2 T00280022
Loading
Personal Weather Stations






























Interactive Weather Map New forecast layout! Learn more

10-Day Weather Forecast

Advertisements
Track Severe Weather on mobile